Time;durP1;ratioP1;P1;durP2;ratioP2;P2;SDS_P1;SDS_P2;PMS_P1;PMS_P2;Temp;Humidity;BMP_temperature;BMP_pressure;BME280_temperature;BME280_humidity;BME280_pressure;Samples;Min_cycle;Max_cycle;Signal;HPM_P1;HPM_P2
2023/06/22 00:00:51;;;;;;;2.83;2.50;;;21.20;94.20;;;;;;5052357;28;20025;-74
2023/06/22 00:03:21;;;;;;;3.33;2.30;;;21.10;94.20;;;;;;5052048;28;20033;-75
2023/06/22 00:05:48;;;;;;;7.80;3.17;;;21.10;94.30;;;;;;5051635;28;20021;-75
2023/06/22 00:08:14;;;;;;;6.32;4.30;;;21.10;94.30;;;;;;5057917;28;20034;-76
2023/06/22 00:10:40;;;;;;;7.57;3.78;;;21.00;94.30;;;;;;5072259;28;20127;-76
2023/06/22 00:13:06;;;;;;;4.75;3.45;;;20.90;94.50;;;;;;5064243;28;20522;-74
2023/06/22 00:15:32;;;;;;;7.80;3.50;;;20.90;94.70;;;;;;5064089;28;20024;-74
2023/06/22 00:17:58;;;;;;;4.53;3.45;;;20.80;94.80;;;;;;5071515;28;20032;-74
2023/06/22 00:20:28;;;;;;;6.68;3.00;;;20.80;95.00;;;;;;5067031;28;20505;-75
2023/06/22 00:22:57;;;;;;;3.88;2.92;;;20.70;95.20;;;;;;5052166;28;20025;-76
2023/06/22 00:25:23;;;;;;;5.45;2.45;;;20.70;95.40;;;;;;5052548;28;20535;-76
2023/06/22 00:27:50;;;;;;;3.53;2.25;;;20.70;95.40;;;;;;5051408;28;20029;-75
2023/06/22 00:30:18;;;;;;;2.60;2.38;;;20.70;95.50;;;;;;5069489;28;20044;-76
2023/06/22 00:32:45;;;;;;;2.58;2.33;;;20.70;95.60;;;;;;5071918;28;20028;-76
2023/06/22 00:35:12;;;;;;;3.03;2.53;;;20.70;95.60;;;;;;5057628;28;20032;-75
2023/06/22 00:37:42;;;;;;;2.58;2.05;;;20.60;95.60;;;;;;5033647;28;20021;-75
2023/06/22 00:40:11;;;;;;;2.65;2.30;;;20.60;95.70;;;;;;5065934;28;20508;-74
2023/06/22 00:42:38;;;;;;;3.22;2.35;;;20.50;95.70;;;;;;5064547;28;20086;-75
2023/06/22 00:45:05;;;;;;;2.75;2.13;;;20.50;95.80;;;;;;5061986;28;20043;-75
2023/06/22 00:47:31;;;;;;;2.38;2.10;;;20.50;95.90;;;;;;5072694;28;20055;-75
2023/06/22 00:49:57;;;;;;;2.17;1.88;;;20.50;95.90;;;;;;5065609;28;20083;-75
2023/06/22 00:52:28;;;;;;;4.95;2.08;;;20.50;95.80;;;;;;5055610;28;20033;-74
2023/06/22 00:54:56;;;;;;;3.45;2.10;;;20.50;95.80;;;;;;5054210;28;20219;-75
2023/06/22 00:57:27;;;;;;;3.83;2.40;;;20.50;95.80;;;;;;5062982;28;20025;-74
2023/06/22 00:59:53;;;;;;;2.50;2.30;;;20.50;95.70;;;;;;5076075;28;20028;-75
2023/06/22 01:02:19;;;;;;;3.15;2.70;;;20.50;95.70;;;;;;5057174;28;20041;-75
2023/06/22 01:04:44;;;;;;;5.10;3.00;;;20.40;95.70;;;;;;5074783;28;20542;-75
2023/06/22 01:07:19;;;;;;;5.68;3.65;;;20.40;95.80;;;;;;5075386;28;20355;-75
2023/06/22 01:09:58;;;;;;;5.20;3.13;;;20.40;95.90;;;;;;5055170;28;20036;-74
2023/06/22 01:12:26;;;;;;;3.38;2.80;;;20.30;96.00;;;;;;5055046;28;20434;-75
2023/06/22 01:15:01;;;;;;;3.70;3.00;;;20.30;96.20;;;;;;5065422;28;20437;-74
2023/06/22 01:17:28;;;;;;;6.07;3.00;;;20.30;96.20;;;;;;5075814;28;20023;-74
2023/06/22 01:19:55;;;;;;;3.08;2.47;;;20.30;96.30;;;;;;5074769;28;20048;-74
2023/06/22 01:22:29;;;;;;;3.28;2.80;;;20.20;96.30;;;;;;5055218;28;20028;-75
2023/06/22 01:25:09;;;;;;;4.68;2.60;;;20.20;96.50;;;;;;5054704;28;20027;-75
2023/06/22 01:27:41;;;;;;;4.10;2.63;;;20.20;96.70;;;;;;5055358;28;20033;-75
2023/06/22 01:30:10;;;;;;;3.20;2.90;;;20.10;96.80;;;;;;5054722;28;20133;-75
2023/06/22 01:32:37;;;;;;;2.67;2.47;;;20.20;96.90;;;;;;5055185;28;20111;-75
2023/06/22 01:35:06;;;;;;;3.58;2.33;;;20.10;97.00;;;;;;5054335;28;20021;-76
2023/06/22 01:37:34;;;;;;;2.22;2.03;;;20.10;97.00;;;;;;5055290;28;20029;-76
2023/06/22 01:40:01;;;;;;;2.50;2.17;;;20.10;97.10;;;;;;5055280;28;20025;-76
2023/06/22 01:42:28;;;;;;;3.63;2.20;;;20.10;97.10;;;;;;5066724;28;20060;-74
2023/06/22 01:44:54;;;;;;;2.38;2.00;;;20.00;97.20;;;;;;5069637;28;20452;-75
2023/06/22 01:47:21;;;;;;;3.13;2.60;;;20.00;97.30;;;;;;5054308;28;20029;-74
2023/06/22 01:49:48;;;;;;;2.75;2.03;;;20.10;97.30;;;;;;5057302;28;20036;-75
2023/06/22 01:52:15;;;;;;;1.90;1.80;;;20.00;97.30;;;;;;5054596;28;20025;-75
2023/06/22 01:54:41;;;;;;;2.90;2.35;;;20.00;97.40;;;;;;5069967;28;20112;-75
2023/06/22 01:57:07;;;;;;;5.60;2.72;;;20.00;97.40;;;;;;5052565;28;20024;-75
2023/06/22 01:59:37;;;;;;;3.15;2.53;;;19.90;97.40;;;;;;5055773;28;20135;-75
2023/06/22 02:02:08;;;;;;;6.78;3.20;;;19.90;97.50;;;;;;5058710;28;20039;-75
2023/06/22 02:04:40;;;;;;;4.47;3.22;;;19.80;97.60;;;;;;5053825;28;20088;-75
2023/06/22 02:07:10;;;;;;;4.88;3.25;;;19.80;97.80;;;;;;5054420;28;20025;-75
2023/06/22 02:09:38;;;;;;;4.72;2.92;;;19.80;97.90;;;;;;5036937;28;20120;-75
2023/06/22 02:12:06;;;;;;;4.53;3.03;;;19.80;98.10;;;;;;5054568;28;20040;-75
2023/06/22 02:14:33;;;;;;;4.43;3.47;;;19.80;98.10;;;;;;5045052;28;20032;-75
2023/06/22 02:16:59;;;;;;;3.95;3.10;;;19.70;98.50;;;;;;5054252;28;20066;-75
2023/06/22 02:19:25;;;;;;;4.20;3.30;;;19.70;98.40;;;;;;5037742;28;20029;-75
2023/06/22 02:21:51;;;;;;;3.28;2.85;;;19.70;98.50;;;;;;5053907;28;20108;-76
2023/06/22 02:24:16;;;;;;;5.10;3.25;;;19.70;98.60;;;;;;5068769;28;20213;-75
2023/06/22 02:26:45;;;;;;;5.13;3.10;;;19.70;98.70;;;;;;5053862;28;20331;-75
2023/06/22 02:29:10;;;;;;;3.58;3.10;;;19.70;98.80;;;;;;5053469;28;20029;-75
2023/06/22 02:31:36;;;;;;;4.25;3.05;;;19.60;98.90;;;;;;5053683;28;20036;-75
2023/06/22 02:34:02;;;;;;;3.97;3.08;;;19.60;99.00;;;;;;5053282;28;20021;-75
2023/06/22 02:36:30;;;;;;;3.13;2.78;;;19.60;99.10;;;;;;5035841;28;20025;-75
2023/06/22 02:39:00;;;;;;;5.32;2.58;;;19.50;99.30;;;;;;5037653;28;20025;-74
2023/06/22 02:41:26;;;;;;;2.97;2.60;;;19.40;99.60;;;;;;5035571;28;20053;-75
2023/06/22 02:43:52;;;;;;;3.47;2.80;;;19.40;99.90;;;;;;5062327;28;20067;-76
2023/06/22 02:46:17;;;;;;;3.53;2.88;;;19.30;99.90;;;;;;5060238;28;20116;-75
2023/06/22 02:48:43;;;;;;;3.67;2.90;;;;;;;;;;5055764;28;20466;-75
2023/06/22 02:51:09;;;;;;;2.85;2.17;;;19.20;99.90;;;;;;5053658;28;20044;-74
2023/06/22 02:53:35;;;;;;;3.92;2.75;;;19.10;99.90;;;;;;5059381;28;20021;-75
2023/06/22 02:56:05;;;;;;;3.55;2.88;;;19.10;99.90;;;;;;5073430;28;20021;-75
2023/06/22 02:58:38;;;;;;;4.25;2.80;;;19.10;99.90;;;;;;5066435;28;20027;-76
2023/06/22 03:01:05;;;;;;;6.53;3.30;;;19.00;99.90;;;;;;5071026;28;20036;-76
2023/06/22 03:03:31;;;;;;;9.68;4.47;;;19.00;99.90;;;;;;5053852;28;20018;-75
2023/06/22 03:05:57;;;;;;;4.22;3.60;;;19.00;99.90;;;;;;5052816;28;20035;-74
2023/06/22 03:08:22;;;;;;;4.45;3.05;;;19.00;99.90;;;;;;5073414;28;20016;-75
2023/06/22 03:10:48;;;;;;;3.50;3.03;;;19.00;99.90;;;;;;5072675;28;20094;-75
2023/06/22 03:13:14;;;;;;;3.90;3.22;;;19.10;99.90;;;;;;5065528;28;20028;-75
2023/06/22 03:15:39;;;;;;;5.70;3.10;;;19.00;99.90;;;;;;5064591;28;20073;-75
2023/06/22 03:18:05;;;;;;;3.00;2.53;;;19.00;99.90;;;;;;5073966;28;20027;-75
2023/06/22 03:20:33;;;;;;;4.60;3.03;;;19.00;99.90;;;;;;5075256;28;20488;-75
2023/06/22 03:22:59;;;;;;;2.78;2.35;;;19.00;99.90;;;;;;5055041;28;20024;-75
2023/06/22 03:25:25;;;;;;;2.40;2.20;;;19.00;99.90;;;;;;5071852;28;20496;-75
2023/06/22 03:27:51;;;;;;;2.58;2.00;;;19.00;99.90;;;;;;5065482;28;20096;-75
2023/06/22 03:30:16;;;;;;;1.85;1.75;;;19.00;99.90;;;;;;5052654;28;20108;-75
2023/06/22 03:32:43;;;;;;;2.17;2.00;;;19.00;99.90;;;;;;5053185;28;20079;-74
2023/06/22 03:35:09;;;;;;;1.90;1.80;;;19.00;99.90;;;;;;5053597;28;20029;-76
2023/06/22 03:37:34;;;;;;;1.83;1.73;;;19.00;99.90;;;;;;5055416;28;20027;-77
2023/06/22 03:40:00;;;;;;;1.88;1.77;;;19.00;99.90;;;;;;5052570;28;20028;-77
2023/06/22 03:42:26;;;;;;;2.08;1.90;;;19.10;99.90;;;;;;5034146;28;20390;-77
2023/06/22 03:44:52;;;;;;;1.92;1.75;;;19.10;99.90;;;;;;5052306;28;20089;-77
2023/06/22 03:47:18;;;;;;;2.60;2.40;;;19.10;99.90;;;;;;5053454;28;20024;-76
2023/06/22 03:49:43;;;;;;;3.53;2.40;;;19.10;99.90;;;;;;5053005;28;20039;-75
2023/06/22 03:52:10;;;;;;;2.10;1.90;;;19.20;99.90;;;;;;5037463;28;20047;-76
2023/06/22 03:54:36;;;;;;;2.63;2.08;;;19.20;99.90;;;;;;5052364;28;20362;-76
2023/06/22 03:57:02;;;;;;;3.92;2.38;;;19.20;99.90;;;;;;5052762;28;20025;-76
2023/06/22 03:59:27;;;;;;;2.50;2.30;;;19.20;99.90;;;;;;5053023;28;20022;-76
2023/06/22 04:01:53;;;;;;;3.75;2.67;;;19.20;99.90;;;;;;5052918;28;20031;-75
2023/06/22 04:04:18;;;;;;;2.92;2.47;;;19.30;99.90;;;;;;5033744;28;20025;-76
2023/06/22 04:06:44;;;;;;;2.50;2.30;;;19.30;99.90;;;;;;5053619;28;20079;-76
2023/06/22 04:09:10;;;;;;;2.85;2.40;;;19.40;99.90;;;;;;5069949;28;20024;-75
2023/06/22 04:11:35;;;;;;;3.50;2.63;;;19.40;99.90;;;;;;5075302;28;20020;-74
2023/06/22 04:14:01;;;;;;;3.50;2.80;;;19.40;99.90;;;;;;5061846;28;20100;-75
2023/06/22 04:16:27;;;;;;;3.70;2.67;;;19.50;99.90;;;;;;5067114;28;20069;-74
2023/06/22 04:18:52;;;;;;;6.53;3.15;;;19.40;99.90;;;;;;5071485;28;20024;-76
2023/06/22 04:21:19;;;;;;;3.00;2.58;;;19.50;99.90;;;;;;5053326;28;20029;-75
2023/06/22 04:23:46;;;;;;;3.40;2.50;;;19.60;99.90;;;;;;5065166;28;20157;-75
2023/06/22 04:26:13;;;;;;;2.63;2.40;;;19.70;99.90;;;;;;5050679;28;20033;-74
2023/06/22 04:28:39;;;;;;;5.10;2.40;;;19.70;99.90;;;;;;5060349;28;20086;-78
2023/06/22 04:31:06;;;;;;;5.28;3.00;;;19.80;99.90;;;;;;5042194;28;20049;-77
2023/06/22 04:33:32;;;;;;;2.80;2.60;;;19.90;99.90;;;;;;5059457;28;20517;-77
2023/06/22 04:36:00;;;;;;;3.08;2.22;;;20.00;99.90;;;;;;5058275;28;20120;-76
2023/06/22 04:38:26;;;;;;;2.22;2.05;;;20.10;99.90;;;;;;5076678;28;20078;-76
2023/06/22 04:40:53;;;;;;;2.53;2.33;;;20.30;99.90;;;;;;5079023;28;20021;-77
2023/06/22 04:43:19;;;;;;;4.28;2.80;;;20.50;99.80;;;;;;5071025;28;20021;-76
2023/06/22 04:45:44;;;;;;;3.15;2.30;;;20.50;99.20;;;;;;5069216;28;20041;-78
2023/06/22 04:48:12;;;;;;;3.20;2.53;;;20.60;98.90;;;;;;5060679;28;20024;-76
2023/06/22 04:50:38;;;;;;;5.57;2.83;;;20.60;98.70;;;;;;5080494;28;20020;-76
2023/06/22 04:53:05;;;;;;;3.70;2.72;;;20.70;98.30;;;;;;5078161;28;20528;-76
2023/06/22 04:55:32;;;;;;;2.50;2.30;;;20.70;98.00;;;;;;5060424;28;20024;-76
2023/06/22 04:58:04;;;;;;;2.92;2.53;;;20.80;97.80;;;;;;5080459;28;20016;-76
2023/06/22 05:00:30;;;;;;;5.85;3.15;;;20.90;97.50;;;;;;5101620;28;20027;-77
2023/06/22 05:02:57;;;;;;;4.55;3.65;;;20.90;97.30;;;;;;5084405;28;20063;-76
2023/06/22 05:05:23;;;;;;;3.92;2.92;;;21.00;97.10;;;;;;5081144;28;20090;-76
2023/06/22 05:07:52;;;;;;;4.45;2.78;;;21.20;97.20;;;;;;5078715;28;20103;-76
2023/06/22 05:10:19;;;;;;;2.67;2.47;;;21.70;96.80;;;;;;5078609;28;20074;-77
2023/06/22 05:12:46;;;;;;;5.07;2.83;;;22.60;95.30;;;;;;5078533;28;20055;-76
2023/06/22 05:15:12;;;;;;;2.58;2.33;;;23.70;92.80;;;;;;5065323;28;20052;-76
2023/06/22 05:17:42;;;;;;;3.75;2.35;;;24.70;90.20;;;;;;5058740;28;20032;-77
2023/06/22 05:20:10;;;;;;;3.40;2.85;;;25.10;87.50;;;;;;5075084;28;20549;-77
2023/06/22 05:22:35;;;;;;;2.55;2.35;;;25.90;85.00;;;;;;5062864;28;20020;-77
2023/06/22 05:25:01;;;;;;;2.78;2.58;;;26.70;81.30;;;;;;5078034;28;20367;-77
2023/06/22 05:27:27;;;;;;;2.60;2.40;;;27.30;76.60;;;;;;5078106;28;20029;-77
2023/06/22 05:29:52;;;;;;;3.15;2.67;;;27.40;75.40;;;;;;5080623;28;20411;-77
2023/06/22 05:32:18;;;;;;;3.42;2.33;;;27.50;73.50;;;;;;5078623;28;20081;-77
2023/06/22 05:34:44;;;;;;;2.58;2.30;;;28.10;73.00;;;;;;5075161;28;20031;-77
2023/06/22 05:37:10;;;;;;;4.93;3.53;;;28.70;70.00;;;;;;5074981;28;20024;-77
2023/06/22 05:39:39;;;;;;;3.40;3.10;;;29.10;67.20;;;;;;5077028;28;20022;-75
2023/06/22 05:42:06;;;;;;;4.47;3.13;;;29.20;66.40;;;;;;5071810;28;20105;-76
2023/06/22 05:44:33;;;;;;;3.47;3.15;;;29.20;65.90;;;;;;5070654;28;20518;-77
2023/06/22 05:46:59;;;;;;;7.28;3.60;;;29.30;65.20;;;;;;5055372;28;20040;-77
2023/06/22 05:49:29;;;;;;;4.85;3.42;;;29.10;65.30;;;;;;5054975;28;20033;-76
2023/06/22 05:51:55;;;;;;;4.00;3.60;;;29.30;65.00;;;;;;5063015;28;20039;-76
2023/06/22 05:54:21;;;;;;;3.67;3.08;;;29.40;65.00;;;;;;5054866;28;20013;-77
2023/06/22 05:56:47;;;;;;;2.50;2.40;;;29.60;64.10;;;;;;5054941;28;20040;-77
2023/06/22 05:59:12;;;;;;;4.88;3.63;;;29.80;63.80;;;;;;5054988;28;20052;-76
2023/06/22 06:01:39;;;;;;;4.47;3.58;;;29.90;62.40;;;;;;5054763;28;20027;-77
2023/06/22 06:04:07;;;;;;;7.75;4.50;;;29.90;62.80;;;;;;5035795;28;20560;-77
2023/06/22 06:06:36;;;;;;;4.43;4.03;;;30.10;62.80;;;;;;5037114;28;20013;-77
2023/06/22 06:09:07;;;;;;;4.30;3.63;;;30.60;62.40;;;;;;5057160;28;20047;-75
2023/06/22 06:11:33;;;;;;;3.88;3.47;;;31.40;60.10;;;;;;5055354;28;20052;-77
2023/06/22 06:13:59;;;;;;;4.88;3.60;;;32.00;58.50;;;;;;5044839;28;20048;-76
2023/06/22 06:16:24;;;;;;;5.85;4.40;;;32.10;57.20;;;;;;5069838;28;20055;-76
2023/06/22 06:18:50;;;;;;;4.53;4.07;;;32.10;56.80;;;;;;5077395;28;20349;-77
2023/06/22 06:21:16;;;;;;;4.43;4.03;;;31.80;57.20;;;;;;5075353;28;20025;-77
2023/06/22 06:23:42;;;;;;;4.13;3.70;;;32.10;57.70;;;;;;5075523;28;20362;-77
2023/06/22 06:26:08;;;;;;;5.10;3.72;;;32.70;56.40;;;;;;5076266;28;20028;-77
2023/06/22 06:28:34;;;;;;;4.00;3.35;;;33.30;55.90;;;;;;5058685;28;20072;-77
2023/06/22 06:31:00;;;;;;;4.28;3.40;;;33.40;54.90;;;;;;5054850;28;20378;-77
2023/06/22 06:33:25;;;;;;;3.08;2.88;;;33.50;54.60;;;;;;5055719;28;20067;-76
2023/06/22 06:35:51;;;;;;;3.33;3.08;;;33.70;53.80;;;;;;5055134;28;20029;-77
2023/06/22 06:38:16;;;;;;;3.28;3.00;;;33.50;53.70;;;;;;5054788;28;20025;-77
2023/06/22 06:40:42;;;;;;;3.92;3.08;;;33.80;54.10;;;;;;5058153;28;20086;-77
2023/06/22 06:43:08;;;;;;;5.20;3.78;;;34.10;53.10;;;;;;5077945;28;20031;-77
2023/06/22 06:45:34;;;;;;;5.40;4.57;;;33.80;52.80;;;;;;5069115;28;20091;-76
2023/06/22 06:48:00;;;;;;;3.80;3.47;;;33.50;54.20;;;;;;5058544;28;20021;-77
2023/06/22 06:50:31;;;;;;;3.70;3.35;;;33.80;53.60;;;;;;5059884;28;20028;-76
2023/06/22 06:52:59;;;;;;;3.80;3.45;;;33.70;53.60;;;;;;5048860;28;20077;-77
2023/06/22 06:55:25;;;;;;;10.07;4.75;;;33.90;53.80;;;;;;5077928;28;20485;-76
2023/06/22 06:57:52;;;;;;;5.78;4.22;;;33.80;52.80;;;;;;5060224;28;20385;-77
2023/06/22 07:00:18;;;;;;;9.32;5.40;;;;;;;;;;5090278;28;20056;-76
2023/06/22 07:02:45;;;;;;;11.32;5.70;;;33.70;52.10;;;;;;5089901;28;20429;-77
2023/06/22 07:05:12;;;;;;;7.55;4.80;;;33.30;53.20;;;;;;5076839;28;20024;-78
2023/06/22 07:07:39;;;;;;;7.15;4.75;;;33.10;54.00;;;;;;5077681;28;20543;-77
2023/06/22 07:10:06;;;;;;;9.93;5.07;;;33.30;54.20;;;;;;5058217;28;20108;-78
2023/06/22 07:12:31;;;;;;;7.35;4.72;;;33.40;54.30;;;;;;5071340;28;20020;-77
2023/06/22 07:15:05;;;;;;;9.00;5.97;;;33.30;53.90;;;;;;5072423;28;20107;-78
2023/06/22 07:17:31;;;;;;;5.57;4.97;;;33.10;54.20;;;;;;5055735;28;20113;-76
2023/06/22 07:19:57;;;;;;;4.45;4.00;;;33.30;54.90;;;;;;5056647;28;20051;-76
2023/06/22 07:22:23;;;;;;;5.53;4.43;;;33.80;53.60;;;;;;5062228;28;20028;-76
2023/06/22 07:24:49;;;;;;;4.93;4.53;;;32.70;53.40;;;;;;5075696;28;20020;-77
2023/06/22 07:27:18;;;;;;;5.50;4.20;;;31.40;56.00;;;;;;5076035;28;20450;-77
2023/06/22 07:29:44;;;;;;;9.25;5.90;;;30.50;58.30;;;;;;5077922;28;20390;-76
2023/06/22 07:32:09;;;;;;;7.53;5.45;;;29.50;60.20;;;;;;5076673;28;20070;-76
2023/06/22 07:34:35;;;;;;;9.75;6.03;;;28.60;62.40;;;;;;5055772;28;20111;-76
2023/06/22 07:37:01;;;;;;;7.88;5.90;;;27.90;64.30;;;;;;5055905;28;20025;-76
2023/06/22 07:39:28;;;;;;;10.07;6.20;;;27.40;66.20;;;;;;5055580;28;20028;-76
2023/06/22 07:41:54;;;;;;;13.13;6.82;;;27.10;67.40;;;;;;5059625;28;20052;-77
2023/06/22 07:44:20;;;;;;;9.63;6.20;;;26.80;68.20;;;;;;5065913;28;20074;-77
2023/06/22 07:46:46;;;;;;;9.00;5.85;;;26.60;69.20;;;;;;5074082;28;20051;-76
2023/06/22 07:49:12;;;;;;;12.13;7.03;;;26.60;69.70;;;;;;5076062;28;20497;-76
2023/06/22 07:51:38;;;;;;;6.97;5.38;;;26.60;70.00;;;;;;5074949;28;20099;-76
2023/06/22 07:54:03;;;;;;;5.93;5.32;;;26.60;69.80;;;;;;5056090;28;20449;-76
2023/06/22 07:56:29;;;;;;;9.63;5.95;;;26.70;69.80;;;;;;5075012;28;20081;-76
2023/06/22 07:58:58;;;;;;;9.35;5.75;;;26.70;69.60;;;;;;5055424;28;20009;-76
2023/06/22 08:01:23;;;;;;;6.15;5.15;;;26.70;69.60;;;;;;5055148;28;20525;-76
2023/06/22 08:03:49;;;;;;;6.88;5.05;;;26.90;69.80;;;;;;5058362;28;20021;-76
2023/06/22 08:06:16;;;;;;;11.20;5.18;;;27.10;69.20;;;;;;5053864;28;20032;-77
2023/06/22 08:08:42;;;;;;;5.70;4.82;;;27.10;68.80;;;;;;5037082;28;20067;-76
2023/06/22 08:11:08;;;;;;;5.95;4.88;;;27.20;68.70;;;;;;5037678;28;20095;-76
2023/06/22 08:13:34;;;;;;;5.82;4.95;;;27.20;68.60;;;;;;5044386;28;20039;-77
2023/06/22 08:16:00;;;;;;;8.15;5.15;;;27.20;68.40;;;;;;5075708;28;20025;-76
2023/06/22 08:18:25;;;;;;;8.30;6.07;;;27.30;68.20;;;;;;5076264;28;20055;-77
2023/06/22 08:20:51;;;;;;;8.98;5.43;;;27.30;68.10;;;;;;5080997;28;20024;-76
2023/06/22 08:23:17;;;;;;;8.80;5.40;;;27.40;68.40;;;;;;5079579;28;20504;-76
2023/06/22 08:25:43;;;;;;;6.43;5.15;;;27.70;67.50;;;;;;5078189;28;20389;-76
2023/06/22 08:28:09;;;;;;;11.85;6.25;;;27.90;67.00;;;;;;5075265;28;20100;-76
2023/06/22 08:30:34;;;;;;;7.82;5.63;;;28.10;66.50;;;;;;5075096;28;20447;-76
2023/06/22 08:33:00;;;;;;;10.73;6.18;;;28.20;65.90;;;;;;5075232;28;20108;-76
2023/06/22 08:35:26;;;;;;;10.77;6.60;;;28.20;65.10;;;;;;5073755;28;20051;-77
2023/06/22 08:37:56;;;;;;;11.63;6.75;;;28.20;65.10;;;;;;5073747;28;20085;-76
2023/06/22 08:40:22;;;;;;;11.13;6.53;;;28.30;65.20;;;;;;5074767;28;20493;-77
2023/06/22 08:42:49;;;;;;;8.13;5.65;;;28.30;64.80;;;;;;5074803;28;20093;-78
2023/06/22 08:45:15;;;;;;;8.45;6.13;;;28.40;65.10;;;;;;5061430;28;20028;-76
2023/06/22 08:47:41;;;;;;;8.13;6.10;;;28.50;64.40;;;;;;5054723;28;20026;-77
2023/06/22 08:50:09;;;;;;;10.02;5.80;;;28.70;64.00;;;;;;5036394;28;20120;-76
2023/06/22 08:52:35;;;;;;;8.50;5.97;;;28.70;63.60;;;;;;5058719;28;20477;-77
2023/06/22 08:55:00;;;;;;;11.35;6.38;;;28.80;62.90;;;;;;5042033;28;20460;-77
2023/06/22 08:57:27;;;;;;;10.27;5.68;;;28.80;62.60;;;;;;5040197;28;20029;-77
2023/06/22 08:59:53;;;;;;;10.93;5.70;;;28.90;62.70;;;;;;5055543;28;20079;-78
2023/06/22 09:02:19;;;;;;;9.10;5.85;;;29.20;62.30;;;;;;5062208;28;20331;-77
2023/06/22 09:04:46;;;;;;;10.23;6.15;;;29.30;61.70;;;;;;5074820;28;20100;-78
2023/06/22 09:07:12;;;;;;;12.35;6.03;;;29.40;61.50;;;;;;5075658;28;20115;-77
2023/06/22 09:09:37;;;;;;;8.13;5.50;;;29.50;61.70;;;;;;5078174;28;20102;-76
2023/06/22 09:12:04;;;;;;;9.65;5.38;;;29.70;61.30;;;;;;5076627;28;20447;-77
2023/06/22 09:14:29;;;;;;;11.80;6.43;;;29.80;60.50;;;;;;5073951;28;20024;-77
2023/06/22 09:16:55;;;;;;;8.45;5.72;;;29.80;60.20;;;;;;5063586;28;20036;-76
2023/06/22 09:19:21;;;;;;;6.70;5.45;;;29.80;60.00;;;;;;5079566;28;20032;-77
2023/06/22 09:21:46;;;;;;;8.57;5.05;;;29.80;60.20;;;;;;5079605;28;20031;-77
2023/06/22 09:24:12;;;;;;;10.32;6.50;;;29.80;60.30;;;;;;5070897;28;20079;-77
2023/06/22 09:26:38;;;;;;;9.55;5.72;;;29.80;59.60;;;;;;5061760;28;20080;-78
2023/06/22 09:29:07;;;;;;;6.55;5.78;;;29.70;60.10;;;;;;5059056;28;20021;-77
2023/06/22 09:31:32;;;;;;;11.40;6.35;;;29.70;60.80;;;;;;5061222;28;20029;-77
2023/06/22 09:33:58;;;;;;;6.05;5.13;;;29.80;60.50;;;;;;5071163;28;20031;-77
2023/06/22 09:36:24;;;;;;;8.95;6.13;;;30.00;60.00;;;;;;5077375;28;20024;-77
2023/06/22 09:38:55;;;;;;;8.77;5.45;;;30.20;59.10;;;;;;5080898;28;20071;-77
2023/06/22 09:41:22;;;;;;;8.77;5.03;;;30.30;59.20;;;;;;5079987;28;20088;-77
2023/06/22 09:43:48;;;;;;;8.45;5.22;;;30.30;59.10;;;;;;5045844;28;20021;-77
2023/06/22 09:46:15;;;;;;;6.82;5.03;;;30.30;59.00;;;;;;5073669;28;20024;-76
2023/06/22 09:48:40;;;;;;;8.85;5.80;;;30.30;59.50;;;;;;5080170;28;20044;-77
2023/06/22 09:51:06;;;;;;;8.88;5.40;;;30.40;59.50;;;;;;5060707;28;20024;-77
2023/06/22 09:53:32;;;;;;;12.40;5.32;;;30.60;59.20;;;;;;5078797;28;20474;-76
2023/06/22 09:55:58;;;;;;;10.38;5.97;;;30.70;58.60;;;;;;5078617;28;20547;-76
2023/06/22 09:58:23;;;;;;;10.98;6.65;;;30.90;58.30;;;;;;5046036;28;20029;-76
2023/06/22 10:00:49;;;;;;;12.85;6.57;;;30.90;58.10;;;;;;5040806;28;20029;-77
2023/06/22 10:03:15;;;;;;;6.97;5.40;;;30.90;58.20;;;;;;5059064;28;20485;-78
2023/06/22 10:05:40;;;;;;;9.27;5.72;;;31.00;58.00;;;;;;5058506;28;20390;-77
2023/06/22 10:08:07;;;;;;;8.77;5.90;;;31.10;57.90;;;;;;5078487;28;20025;-78
2023/06/22 10:10:33;;;;;;;13.02;6.72;;;31.10;58.00;;;;;;5080457;28;20096;-78
2023/06/22 10:13:10;;;;;;;12.02;6.65;;;31.20;58.10;;;;;;5067884;28;20033;-77
2023/06/22 10:15:36;;;;;;;10.82;5.90;;;31.20;57.50;;;;;;5061627;28;20498;-77
2023/06/22 10:18:02;;;;;;;8.48;5.10;;;31.30;57.70;;;;;;5060253;28;20059;-77
2023/06/22 10:20:28;;;;;;;9.20;5.72;;;31.40;57.50;;;;;;5075531;28;20492;-77
2023/06/22 10:22:53;;;;;;;12.65;6.90;;;31.60;56.90;;;;;;5039756;28;20577;-78
2023/06/22 10:25:19;;;;;;;13.32;7.13;;;31.70;56.70;;;;;;5058464;28;20049;-77
2023/06/22 10:27:45;;;;;;;10.18;6.18;;;31.60;56.80;;;;;;5058705;28;20049;-77
2023/06/22 10:30:14;;;;;;;9.23;5.88;;;31.60;57.00;;;;;;5059465;28;20032;-77
2023/06/22 10:32:44;;;;;;;9.32;6.07;;;31.60;56.70;;;;;;5073847;28;20024;-77
2023/06/22 10:35:13;;;;;;;6.85;5.57;;;31.80;56.50;;;;;;5078565;28;20081;-77
2023/06/22 10:37:38;;;;;;;13.10;6.18;;;31.90;56.20;;;;;;5082702;28;20146;-77
2023/06/22 10:40:05;;;;;;;5.45;4.95;;;32.10;55.90;;;;;;5085486;28;20021;-78
2023/06/22 10:42:31;;;;;;;10.43;5.88;;;32.30;55.30;;;;;;5073926;28;20039;-77
2023/06/22 10:44:57;;;;;;;6.88;5.50;;;32.30;54.70;;;;;;5066459;28;20056;-76
2023/06/22 10:47:22;;;;;;;9.90;6.10;;;32.40;54.40;;;;;;5057971;28;20032;-77
2023/06/22 10:49:48;;;;;;;5.13;4.63;;;32.50;54.40;;;;;;5039961;28;20032;-77
2023/06/22 10:52:13;;;;;;;9.73;5.90;;;32.80;53.80;;;;;;5062731;28;20024;-77
2023/06/22 10:54:39;;;;;;;12.00;6.32;;;;;;;;;;5076574;28;20048;-78
2023/06/22 10:57:05;;;;;;;6.95;5.43;;;33.00;52.90;;;;;;5077619;28;20028;-77
2023/06/22 10:59:31;;;;;;;10.02;6.32;;;33.10;53.20;;;;;;5079646;28;20023;-77
2023/06/22 11:01:58;;;;;;;10.93;6.35;;;33.30;52.90;;;;;;5079459;28;20028;-75
2023/06/22 11:04:23;;;;;;;9.68;6.50;;;33.20;53.10;;;;;;5079517;28;20109;-76
2023/06/22 11:06:50;;;;;;;7.60;5.55;;;33.40;52.90;;;;;;5077924;28;20048;-77
2023/06/22 11:09:22;;;;;;;5.82;5.13;;;33.60;52.40;;;;;;5077252;28;20047;-77
2023/06/22 11:11:53;;;;;;;9.98;5.80;;;33.50;52.10;;;;;;5059867;28;20542;-77
2023/06/22 11:14:19;;;;;;;13.20;6.50;;;33.30;52.60;;;;;;5056420;28;20077;-77
2023/06/22 11:16:46;;;;;;;7.38;5.57;;;33.10;52.80;;;;;;5059620;28;20096;-76
2023/06/22 11:19:12;;;;;;;6.25;5.63;;;33.00;53.40;;;;;;5057717;28;20021;-76
2023/06/22 11:21:37;;;;;;;13.02;6.32;;;33.20;53.20;;;;;;5057376;28;20036;-77
2023/06/22 11:24:03;;;;;;;9.50;5.47;;;33.30;52.50;;;;;;5070666;28;20028;-77
2023/06/22 11:26:29;;;;;;;11.77;6.18;;;33.40;53.10;;;;;;5077813;28;20082;-78
2023/06/22 11:28:55;;;;;;;10.30;5.85;;;33.40;53.10;;;;;;5040371;28;20401;-77
2023/06/22 11:31:21;;;;;;;8.25;5.60;;;33.40;53.50;;;;;;5059252;28;20045;-78
2023/06/22 11:33:47;;;;;;;10.55;6.28;;;33.40;53.40;;;;;;5064456;28;20031;-76
2023/06/22 11:36:14;;;;;;;15.90;7.55;;;33.50;53.30;;;;;;5066606;28;20029;-77
2023/06/22 11:38:40;;;;;;;10.75;6.15;;;33.50;53.50;;;;;;5057650;28;20116;-78
2023/06/22 11:41:06;;;;;;;9.13;6.07;;;33.70;54.30;;;;;;5056286;28;20029;-78
2023/06/22 11:43:33;;;;;;;7.63;6.57;;;33.70;54.20;;;;;;5058587;28;20032;-78
2023/06/22 11:46:00;;;;;;;10.02;6.22;;;33.80;54.10;;;;;;5076014;28;20064;-77
2023/06/22 11:48:26;;;;;;;10.93;7.40;;;33.90;54.10;;;;;;5077752;28;20036;-77
2023/06/22 11:50:52;;;;;;;12.05;7.22;;;;;;;;;;5075674;28;20029;-77
2023/06/22 11:53:18;;;;;;;10.18;6.53;;;33.80;53.50;;;;;;5075860;28;20100;-79
2023/06/22 11:55:44;;;;;;;11.95;6.25;;;33.70;54.20;;;;;;5058370;28;20025;-77
2023/06/22 11:58:09;;;;;;;12.73;6.63;;;33.70;54.00;;;;;;5055622;28;20025;-79
2023/06/22 12:00:35;;;;;;;13.23;5.82;;;33.70;54.10;;;;;;5055003;28;20083;-78
2023/06/22 12:03:01;;;;;;;7.93;6.00;;;33.90;54.20;;;;;;5056327;28;20485;-78
2023/06/22 12:05:27;;;;;;;8.70;6.35;;;34.10;53.60;;;;;;5067999;28;20040;-77
2023/06/22 12:07:54;;;;;;;10.18;6.18;;;34.40;53.20;;;;;;5076337;28;20028;-76
2023/06/22 12:10:20;;;;;;;14.15;7.13;;;34.60;52.40;;;;;;5076971;28;20029;-77
2023/06/22 12:12:46;;;;;;;15.25;6.30;;;34.40;52.20;;;;;;5068245;28;20021;-76
2023/06/22 12:15:12;;;;;;;12.63;6.97;;;34.10;52.90;;;;;;5067753;28;20047;-77
2023/06/22 12:17:37;;;;;;;18.80;7.80;;;33.90;53.40;;;;;;5075579;28;20080;-77
2023/06/22 12:20:05;;;;;;;10.98;6.20;;;33.90;53.30;;;;;;5076475;28;20414;-76
2023/06/22 12:22:34;;;;;;;14.50;6.53;;;34.00;53.30;;;;;;5075762;28;20107;-77
2023/06/22 12:25:01;;;;;;;11.38;6.72;;;34.20;53.70;;;;;;5074441;28;20097;-77
2023/06/22 12:27:27;;;;;;;11.38;6.65;;;34.30;52.50;;;;;;5069262;28;20025;-76
2023/06/22 12:29:52;;;;;;;12.57;7.03;;;34.50;52.80;;;;;;5066823;28;20393;-75
2023/06/22 12:32:18;;;;;;;16.27;7.07;;;34.80;52.20;;;;;;5075493;28;20119;-78
2023/06/22 12:34:44;;;;;;;19.23;7.53;;;34.90;51.80;;;;;;5058318;28;20535;-77
2023/06/22 12:37:10;;;;;;;8.65;6.28;;;34.90;51.30;;;;;;5054964;28;20081;-76
2023/06/22 12:39:36;;;;;;;11.93;6.53;;;35.00;51.30;;;;;;5055687;28;20048;-77
2023/06/22 12:42:02;;;;;;;9.68;6.50;;;35.10;51.40;;;;;;5055086;28;20112;-77